Time;durP1;ratioP1;P1;durP2;ratioP2;P2;SDS_P1;SDS_P2;PMS_P1;PMS_P2;Temp;Humidity;BMP_temperature;BMP_pressure;BME280_temperature;BME280_humidity;BME280_pressure;Samples;Min_cycle;Max_cycle;Signal;HPM_P1;HPM_P2
2022/09/03 00:02:01;;;;;;;0.70;0.45;;;16.80;91.40;;;;;;5054086;28;20436;-80
2022/09/03 00:04:56;;;;;;;1.20;0.68;;;16.80;91.10;;;;;;5037352;28;20463;-80
2022/09/03 00:07:55;;;;;;;0.40;0.40;;;16.80;91.30;;;;;;5053575;28;20123;-71
2022/09/03 00:10:31;;;;;;;0.40;0.38;;;16.80;91.20;;;;;;5053468;28;20052;-72
2022/09/03 00:13:01;;;;;;;;;;;16.70;91.30;;;;;;5054377;28;20698;-82
2022/09/03 00:15:30;;;;;;;0.60;0.32;;;16.70;91.30;;;;;;5053857;28;20334;-81
2022/09/03 00:18:12;;;;;;;0.52;0.30;;;16.70;91.30;;;;;;5037230;28;20445;-71
2022/09/03 00:20:45;;;;;;;0.65;0.35;;;16.70;91.20;;;;;;5053219;28;20055;-71
2022/09/03 00:23:18;;;;;;;0.30;0.20;;;16.70;91.30;;;;;;5054143;28;20464;-80
2022/09/03 00:26:16;;;;;;;0.43;0.30;;;16.70;91.30;;;;;;5037314;28;20064;-72
2022/09/03 00:28:45;;;;;;;0.95;0.40;;;16.70;91.30;;;;;;5053148;28;20038;-71
2022/09/03 00:31:17;;;;;;;0.38;0.30;;;16.70;91.30;;;;;;5053172;28;20090;-71
2022/09/03 00:33:47;;;;;;;0.25;0.20;;;16.70;91.40;;;;;;5053143;28;20087;-79
2022/09/03 00:36:41;;;;;;;0.35;0.20;;;16.70;91.30;;;;;;5053306;28;20056;-72
2022/09/03 00:39:09;;;;;;;0.30;0.30;;;16.60;91.40;;;;;;5052894;28;20126;-80
2022/09/03 00:41:43;;;;;;;0.73;0.40;;;16.60;91.40;;;;;;5071694;28;20044;-81
2022/09/03 00:44:18;;;;;;;0.25;0.20;;;16.60;91.50;;;;;;5053349;28;20044;-72
2022/09/03 00:47:11;;;;;;;0.20;0.20;;;16.60;91.40;;;;;;5053416;28;20135;-72
2022/09/03 00:49:47;;;;;;;0.40;0.10;;;16.60;91.40;;;;;;5053024;28;20113;-72
2022/09/03 00:52:37;;;;;;;0.55;0.20;;;16.50;91.50;;;;;;5036475;28;20079;-72
2022/09/03 00:55:13;;;;;;;0.80;0.52;;;16.40;91.50;;;;;;5053414;28;20407;-81
2022/09/03 00:58:00;;;;;;;0.68;0.50;;;16.50;91.60;;;;;;5053185;28;20510;-81
2022/09/03 01:00:27;;;;;;;0.95;0.68;;;16.40;91.60;;;;;;5053177;28;20559;-72
2022/09/03 01:03:04;;;;;;;1.00;0.70;;;16.40;91.70;;;;;;5036616;28;20115;-72
2022/09/03 01:05:42;;;;;;;0.88;0.63;;;16.40;91.70;;;;;;5052779;28;20453;-80
2022/09/03 01:08:31;;;;;;;1.08;0.68;;;16.30;91.90;;;;;;5052844;28;20060;-80
2022/09/03 01:11:16;;;;;;;1.60;0.80;;;16.30;91.70;;;;;;5040231;28;20156;-72
2022/09/03 01:13:52;;;;;;;0.50;0.40;;;16.30;91.70;;;;;;5057078;28;20044;-72
2022/09/03 01:16:20;;;;;;;0.98;0.70;;;16.30;91.90;;;;;;5056701;28;20044;-71
2022/09/03 01:18:52;;;;;;;0.80;0.50;;;16.20;91.90;;;;;;5056985;28;20571;-81
2022/09/03 01:21:40;;;;;;;0.95;0.65;;;16.20;91.90;;;;;;5056734;28;20050;-80
2022/09/03 01:24:27;;;;;;;0.88;0.50;;;16.10;91.90;;;;;;5056908;28;20036;-81
2022/09/03 01:26:56;;;;;;;0.60;0.40;;;16.10;92.00;;;;;;5056850;28;20457;-71
2022/09/03 01:29:50;;;;;;;0.45;0.38;;;16.10;92.00;;;;;;5056616;28;20105;-71
2022/09/03 01:32:36;;;;;;;0.28;0.20;;;16.00;92.00;;;;;;5056816;28;20482;-71
2022/09/03 01:35:31;;;;;;;0.65;0.30;;;16.00;92.00;;;;;;5056095;28;20056;-71
2022/09/03 01:37:57;;;;;;;0.90;0.40;;;16.00;92.10;;;;;;5039895;28;20084;-71
2022/09/03 01:40:22;;;;;;;0.25;0.20;;;16.00;92.10;;;;;;5074389;28;20483;-80
2022/09/03 01:42:59;;;;;;;0.90;0.20;;;16.00;91.90;;;;;;5039807;28;20044;-80
2022/09/03 01:45:27;;;;;;;0.40;0.28;;;16.00;92.10;;;;;;5056519;28;20549;-79
2022/09/03 01:48:02;;;;;;;0.50;0.20;;;15.90;92.10;;;;;;5056241;28;20124;-71
2022/09/03 01:50:41;;;;;;;0.65;0.25;;;16.00;92.30;;;;;;5056378;28;20433;-71
2022/09/03 01:53:43;;;;;;;1.55;0.35;;;15.90;92.00;;;;;;5056380;28;20082;-80
2022/09/03 01:56:27;;;;;;;0.25;0.20;;;15.90;92.00;;;;;;5056017;28;20046;-80
2022/09/03 01:59:06;;;;;;;0.90;0.40;;;15.90;92.00;;;;;;5056197;28;20080;-79
2022/09/03 02:01:36;;;;;;;0.30;0.20;;;15.90;92.20;;;;;;5056027;28;20012;-71
2022/09/03 02:04:22;;;;;;;0.10;0.10;;;15.90;92.10;;;;;;5055928;28;20046;-72
2022/09/03 02:06:49;;;;;;;0.20;0.15;;;15.80;92.10;;;;;;5055875;28;20052;-80
2022/09/03 02:09:16;;;;;;;0.20;0.20;;;15.80;92.30;;;;;;5056313;28;20388;-80
2022/09/03 02:11:45;;;;;;;0.22;0.20;;;15.80;92.20;;;;;;5056246;28;20044;-80
2022/09/03 02:14:12;;;;;;;0.47;0.25;;;15.80;92.30;;;;;;5055894;28;20502;-80
2022/09/03 02:16:38;;;;;;;0.68;0.32;;;15.70;92.30;;;;;;5055795;28;20064;-81
2022/09/03 02:19:11;;;;;;;0.35;0.15;;;15.70;92.30;;;;;;5056207;28;20042;-81
2022/09/03 02:21:52;;;;;;;0.15;0.15;;;15.70;92.30;;;;;;5054491;28;20045;-72
2022/09/03 02:24:18;;;;;;;0.20;0.20;;;15.70;92.30;;;;;;5055685;28;20056;-80
2022/09/03 02:26:45;;;;;;;0.20;0.20;;;15.60;92.40;;;;;;5055514;28;20498;-80
2022/09/03 02:29:12;;;;;;;0.17;0.17;;;15.60;92.50;;;;;;5055518;28;20048;-72
2022/09/03 02:31:38;;;;;;;0.20;0.20;;;15.50;92.50;;;;;;5055707;28;20472;-80
2022/09/03 02:34:04;;;;;;;0.38;0.13;;;15.50;92.60;;;;;;5055776;28;20101;-78
2022/09/03 02:36:37;;;;;;;0.20;0.20;;;15.40;92.80;;;;;;5055285;28;20063;-71
2022/09/03 02:39:03;;;;;;;0.73;0.43;;;15.40;93.00;;;;;;5055011;28;20044;-71
2022/09/03 02:41:28;;;;;;;;;;;15.30;93.10;;;;;;5038939;28;20121;-71
2022/09/03 02:44:01;;;;;;;0.85;0.40;;;15.30;93.20;;;;;;5055155;28;19971;-80
2022/09/03 02:46:35;;;;;;;0.35;0.30;;;15.20;93.20;;;;;;5055427;28;20392;-79
2022/09/03 02:49:01;;;;;;;0.30;0.28;;;15.20;93.10;;;;;;5055419;28;20087;-71
2022/09/03 02:51:32;;;;;;;0.45;0.20;;;15.10;93.20;;;;;;5038570;28;20515;-71
2022/09/03 02:53:57;;;;;;;0.63;0.30;;;15.10;93.30;;;;;;5054866;28;20118;-72
2022/09/03 02:56:26;;;;;;;0.50;0.30;;;15.00;93.50;;;;;;5055205;28;20071;-71
2022/09/03 02:58:53;;;;;;;0.45;0.38;;;14.90;93.60;;;;;;5054903;28;20579;-71
2022/09/03 03:01:25;;;;;;;0.88;0.30;;;14.90;93.50;;;;;;5055038;28;20059;-72
2022/09/03 03:03:50;;;;;;;;;;;14.90;93.60;;;;;;5055129;28;20048;-72
2022/09/03 03:06:19;;;;;;;0.25;0.22;;;14.80;93.80;;;;;;5054631;28;19943;-72
2022/09/03 03:08:46;;;;;;;0.40;0.30;;;14.80;93.90;;;;;;5054795;28;20048;-72
2022/09/03 03:11:15;;;;;;;0.20;0.20;;;14.80;93.90;;;;;;5054596;28;20488;-72
2022/09/03 03:13:41;;;;;;;0.30;0.30;;;14.70;94.10;;;;;;5054515;28;20052;-72
2022/09/03 03:16:06;;;;;;;0.10;0.10;;;14.70;94.30;;;;;;5054717;28;20051;-71
2022/09/03 03:18:33;;;;;;;0.50;0.20;;;14.70;94.00;;;;;;5054508;28;20037;-72
2022/09/03 03:21:04;;;;;;;0.52;0.30;;;14.70;94.30;;;;;;5072350;28;20044;-73
2022/09/03 03:23:31;;;;;;;0.40;0.30;;;14.60;94.20;;;;;;5054634;28;20080;-80
2022/09/03 03:26:01;;;;;;;0.22;0.20;;;14.60;94.30;;;;;;5054449;28;20051;-71
2022/09/03 03:28:27;;;;;;;0.60;0.30;;;14.60;94.30;;;;;;5054615;28;20072;-72
2022/09/03 03:30:53;;;;;;;0.55;0.30;;;14.60;94.40;;;;;;5037712;28;20098;-71
2022/09/03 03:33:19;;;;;;;0.88;0.30;;;14.60;94.20;;;;;;5053899;28;20098;-79
2022/09/03 03:35:45;;;;;;;;;;;14.60;94.40;;;;;;5054511;28;20063;-80
2022/09/03 03:38:11;;;;;;;0.57;0.30;;;14.60;94.30;;;;;;5054407;28;19920;-79
2022/09/03 03:40:38;;;;;;;0.52;0.30;;;14.60;94.50;;;;;;5054320;28;20560;-79
2022/09/03 03:43:03;;;;;;;0.47;0.28;;;14.60;94.40;;;;;;5053998;28;20475;-80
2022/09/03 03:45:29;;;;;;;0.30;0.20;;;14.70;94.30;;;;;;5054400;28;20036;-79
2022/09/03 03:47:58;;;;;;;0.20;0.20;;;14.70;94.40;;;;;;5054294;28;20047;-80
2022/09/03 03:50:24;;;;;;;0.50;0.30;;;14.70;94.40;;;;;;5054398;28;20076;-80
2022/09/03 03:52:50;;;;;;;0.28;0.20;;;14.80;94.30;;;;;;5037619;28;20044;-80
2022/09/03 03:55:15;;;;;;;0.32;0.20;;;14.80;94.20;;;;;;5053991;28;20434;-80
2022/09/03 03:57:41;;;;;;;0.38;0.38;;;14.80;94.30;;;;;;5053905;28;20044;-80
2022/09/03 04:00:07;;;;;;;0.30;0.20;;;14.80;94.20;;;;;;5037231;28;20185;-81
2022/09/03 04:02:33;;;;;;;2.05;0.43;;;14.80;94.20;;;;;;5053729;28;20384;-72
2022/09/03 04:04:59;;;;;;;0.30;0.30;;;14.90;94.30;;;;;;5053737;28;20042;-72
2022/09/03 04:07:24;;;;;;;1.00;0.40;;;14.90;94.30;;;;;;5053400;28;20834;-72
2022/09/03 04:09:50;;;;;;;0.47;0.30;;;14.90;94.40;;;;;;5053590;28;20091;-71
2022/09/03 04:12:18;;;;;;;0.45;0.40;;;14.90;94.20;;;;;;5036916;28;20044;-71
2022/09/03 04:14:43;;;;;;;0.47;0.43;;;14.90;94.40;;;;;;5053321;28;20408;-71
2022/09/03 04:17:09;;;;;;;0.55;0.50;;;14.90;94.40;;;;;;5037112;28;20040;-80
2022/09/03 04:19:34;;;;;;;0.63;0.40;;;14.90;94.40;;;;;;5053572;28;20415;-80
2022/09/03 04:22:00;;;;;;;0.68;0.38;;;14.90;94.40;;;;;;5053702;28;20040;-72
2022/09/03 04:24:26;;;;;;;0.50;0.28;;;15.00;94.30;;;;;;5053518;28;20518;-72
2022/09/03 04:26:53;;;;;;;0.40;0.40;;;15.00;94.50;;;;;;5053219;28;20040;-70
2022/09/03 04:29:20;;;;;;;0.60;0.40;;;15.00;94.50;;;;;;5053346;28;20052;-71
2022/09/03 04:34:31;;;;;;;1.40;0.30;;;14.90;94.60;;;;;;5056965;28;20045;-81
2022/09/03 04:36:59;;;;;;;1.02;0.30;;;14.90;94.30;;;;;;5053123;28;20144;-80
2022/09/03 04:39:25;;;;;;;0.57;0.40;;;14.90;94.70;;;;;;5053371;28;20127;-80
2022/09/03 04:41:51;;;;;;;1.85;0.30;;;14.80;94.70;;;;;;5052982;28;20144;-80
2022/09/03 04:44:16;;;;;;;0.40;0.30;;;14.80;94.80;;;;;;5035942;28;20040;-80
2022/09/03 04:46:42;;;;;;;0.60;0.38;;;14.80;94.80;;;;;;5053107;28;20079;-81
2022/09/03 04:49:08;;;;;;;0.57;0.50;;;14.80;94.90;;;;;;5053350;28;20048;-81
2022/09/03 04:51:36;;;;;;;0.60;0.50;;;14.80;95.10;;;;;;5053099;28;20040;-80
2022/09/03 04:54:02;;;;;;;0.75;0.40;;;14.80;94.80;;;;;;5053003;28;20079;-80
2022/09/03 04:56:33;;;;;;;0.40;0.25;;;14.70;94.80;;;;;;5053203;28;20076;-80
2022/09/03 04:59:04;;;;;;;0.90;0.50;;;14.70;95.00;;;;;;5036295;28;20495;-72
2022/09/03 05:01:33;;;;;;;0.40;0.40;;;14.70;95.00;;;;;;5036202;28;20040;-71
2022/09/03 05:03:59;;;;;;;0.50;0.47;;;14.70;95.10;;;;;;5036288;28;20181;-71
2022/09/03 05:06:25;;;;;;;;;;;14.70;95.00;;;;;;5053111;28;20132;-80
2022/09/03 05:08:53;;;;;;;2.03;0.50;;;14.70;95.20;;;;;;5052698;28;19916;-78
2022/09/03 05:11:19;;;;;;;0.60;0.40;;;14.70;95.20;;;;;;5052633;28;20079;-71
2022/09/03 05:13:53;;;;;;;0.60;0.50;;;14.60;95.20;;;;;;5052581;28;20044;-72
2022/09/03 05:16:20;;;;;;;0.50;0.50;;;14.60;95.20;;;;;;5052493;28;20045;-71
2022/09/03 05:18:47;;;;;;;2.00;0.52;;;14.60;95.30;;;;;;5035936;28;20127;-72
2022/09/03 05:21:17;;;;;;;1.05;0.50;;;14.60;95.40;;;;;;5070561;28;20408;-78
2022/09/03 05:23:45;;;;;;;1.65;0.57;;;14.60;95.40;;;;;;5053245;28;20041;-79
2022/09/03 05:26:17;;;;;;;1.15;0.60;;;14.60;95.40;;;;;;5052511;28;20484;-80
2022/09/03 05:28:44;;;;;;;0.65;0.45;;;14.70;95.40;;;;;;5052590;28;20051;-80
2022/09/03 05:31:18;;;;;;;0.57;0.40;;;14.60;95.50;;;;;;5052333;28;20040;-71
2022/09/03 05:33:50;;;;;;;0.70;0.63;;;14.70;95.60;;;;;;5036194;28;20517;-71
2022/09/03 05:36:21;;;;;;;0.77;0.50;;;14.70;95.50;;;;;;5052438;28;20068;-79
2022/09/03 05:38:48;;;;;;;0.70;0.45;;;14.70;95.50;;;;;;5052908;28;20613;-80
2022/09/03 05:41:16;;;;;;;1.17;0.77;;;14.70;95.50;;;;;;5052472;28;20120;-80
2022/09/03 05:43:42;;;;;;;0.80;0.50;;;14.70;95.30;;;;;;5052547;28;20036;-80
2022/09/03 05:46:10;;;;;;;;;;;14.70;95.50;;;;;;5052804;28;20410;-71
2022/09/03 05:48:36;;;;;;;;;;;14.70;95.60;;;;;;5036136;28;20372;-80
2022/09/03 05:51:03;;;;;;;0.95;0.70;;;14.70;95.60;;;;;;5052282;28;20375;-80
2022/09/03 05:53:31;;;;;;;0.68;0.60;;;14.70;95.60;;;;;;5036038;28;20062;-81
2022/09/03 05:56:04;;;;;;;0.63;0.50;;;14.70;95.70;;;;;;5054426;28;20137;-80
2022/09/03 05:58:31;;;;;;;0.60;0.43;;;14.70;95.60;;;;;;5056106;28;20127;-71
2022/09/03 06:00:57;;;;;;;0.63;0.50;;;14.80;95.70;;;;;;5056019;28;20062;-80
2022/09/03 06:03:22;;;;;;;0.30;0.28;;;14.80;95.70;;;;;;5056243;28;20071;-71
2022/09/03 06:05:53;;;;;;;1.05;0.55;;;14.70;95.70;;;;;;5039237;28;20071;-71
2022/09/03 06:08:19;;;;;;;0.73;0.50;;;14.80;95.60;;;;;;5056001;28;20048;-80
2022/09/03 06:10:45;;;;;;;0.70;0.60;;;14.70;95.60;;;;;;5056177;28;20091;-71
2022/09/03 06:13:11;;;;;;;0.95;0.55;;;14.70;95.80;;;;;;5055673;28;20591;-80
2022/09/03 06:15:37;;;;;;;1.80;0.80;;;14.70;95.80;;;;;;5055893;28;20113;-72
2022/09/03 06:18:03;;;;;;;0.88;0.70;;;14.70;95.90;;;;;;5055528;28;20082;-72
2022/09/03 06:20:31;;;;;;;;;;;14.70;95.90;;;;;;5055742;28;20087;-72
2022/09/03 06:22:57;;;;;;;0.70;0.60;;;14.80;95.90;;;;;;5055459;28;19920;-71
2022/09/03 06:25:23;;;;;;;0.77;0.60;;;14.80;95.90;;;;;;5055497;28;20127;-79
2022/09/03 06:27:49;;;;;;;0.63;0.50;;;14.90;96.10;;;;;;5055459;28;20055;-72
2022/09/03 06:30:15;;;;;;;;;;;15.00;96.10;;;;;;5056084;28;20391;-72
2022/09/03 06:32:51;;;;;;;0.80;0.50;;;15.50;95.90;;;;;;5055788;28;20003;-80
2022/09/03 06:35:17;;;;;;;1.13;0.60;;;16.10;95.00;;;;;;5055382;28;20091;-80
2022/09/03 06:37:43;;;;;;;;;;;16.60;94.30;;;;;;5056386;28;20056;-80
2022/09/03 06:40:12;;;;;;;1.75;0.55;;;17.00;93.90;;;;;;5055392;28;20376;-71
2022/09/03 06:42:40;;;;;;;0.63;0.35;;;17.30;93.60;;;;;;5055233;28;20496;-71
2022/09/03 06:45:10;;;;;;;0.40;0.40;;;17.60;93.50;;;;;;5022701;28;20049;-71
2022/09/03 06:47:36;;;;;;;0.65;0.40;;;17.80;93.10;;;;;;5055278;28;20045;-80
2022/09/03 06:50:02;;;;;;;0.90;0.60;;;18.00;93.10;;;;;;5055141;28;20054;-80
2022/09/03 06:52:28;;;;;;;2.03;0.52;;;18.20;92.40;;;;;;5055149;28;20059;-80
2022/09/03 06:54:54;;;;;;;0.70;0.57;;;18.40;92.40;;;;;;5073173;28;20040;-71
2022/09/03 06:57:20;;;;;;;0.70;0.50;;;18.60;92.20;;;;;;5038746;28;20052;-73
2022/09/03 06:59:45;;;;;;;0.55;0.50;;;18.60;92.00;;;;;;5054997;28;20044;-79
2022/09/03 07:02:11;;;;;;;0.77;0.50;;;18.70;91.90;;;;;;5072984;28;20117;-71
2022/09/03 07:04:37;;;;;;;0.95;0.80;;;18.80;92.20;;;;;;5054615;28;20637;-72
2022/09/03 07:07:03;;;;;;;;;;;19.00;92.20;;;;;;5072335;28;20113;-80
2022/09/03 07:09:28;;;;;;;1.15;0.68;;;19.10;91.80;;;;;;5054711;28;19923;-72
2022/09/03 07:11:54;;;;;;;0.85;0.60;;;18.90;91.90;;;;;;5054571;28;20052;-71
2022/09/03 07:14:20;;;;;;;;;;;19.00;91.80;;;;;;5055308;28;20101;-80
2022/09/03 07:16:47;;;;;;;0.98;0.55;;;19.00;91.80;;;;;;5055115;28;19965;-80
2022/09/03 07:19:13;;;;;;;0.77;0.60;;;19.10;91.60;;;;;;5054545;28;20049;-71
2022/09/03 07:21:40;;;;;;;0.85;0.60;;;19.30;91.80;;;;;;5038169;28;20506;-71
2022/09/03 07:24:07;;;;;;;0.77;0.40;;;19.50;91.50;;;;;;5054498;28;20051;-72
2022/09/03 07:26:36;;;;;;;1.02;0.60;;;19.60;91.30;;;;;;5037700;28;20492;-72
2022/09/03 07:29:03;;;;;;;1.05;0.50;;;19.60;91.40;;;;;;5054255;28;20116;-72
2022/09/03 07:31:34;;;;;;;0.77;0.60;;;19.70;91.10;;;;;;5054289;28;20052;-72
2022/09/03 07:34:04;;;;;;;0.45;0.40;;;19.50;91.30;;;;;;5054302;28;20048;-72
2022/09/03 07:36:40;;;;;;;0.60;0.50;;;19.60;91.30;;;;;;5053873;28;20056;-72
2022/09/03 07:39:06;;;;;;;0.70;0.60;;;19.80;91.20;;;;;;5054435;28;20052;-72
2022/09/03 07:41:32;;;;;;;1.00;0.55;;;19.90;91.30;;;;;;5054331;28;20438;-72
2022/09/03 07:43:59;;;;;;;;;;;19.80;90.90;;;;;;5054548;28;20048;-71
2022/09/03 07:46:26;;;;;;;1.13;0.50;;;20.00;91.30;;;;;;5054095;28;20409;-71
2022/09/03 07:48:54;;;;;;;0.75;0.50;;;20.10;91.20;;;;;;5037378;28;20051;-71
2022/09/03 07:51:25;;;;;;;0.73;0.50;;;20.20;91.30;;;;;;5037097;28;20055;-71
2022/09/03 07:53:52;;;;;;;0.50;0.50;;;20.20;91.00;;;;;;5054105;28;20040;-71
2022/09/03 07:56:18;;;;;;;0.93;0.63;;;20.40;90.80;;;;;;5053839;28;20119;-72
2022/09/03 07:58:44;;;;;;;;;;;20.40;90.80;;;;;;5054379;28;20124;-72
2022/09/03 08:01:30;;;;;;;1.00;0.57;;;20.60;91.00;;;;;;5053715;28;19924;-71
2022/09/03 08:03:56;;;;;;;0.73;0.60;;;20.50;90.90;;;;;;5053811;28;20119;-72
2022/09/03 08:06:23;;;;;;;;;;;20.50;90.80;;;;;;5054230;28;20547;-71
2022/09/03 08:08:56;;;;;;;0.80;0.60;;;20.50;91.00;;;;;;5053919;28;20291;-71
2022/09/03 08:11:21;;;;;;;0.70;0.55;;;20.60;91.20;;;;;;5053854;28;20044;-71
2022/09/03 08:14:01;;;;;;;;;;;20.70;90.80;;;;;;5054364;28;20048;-79
2022/09/03 08:16:35;;;;;;;1.48;0.50;;;20.60;90.60;;;;;;5071818;28;19921;-80
2022/09/03 08:19:01;;;;;;;0.73;0.52;;;20.60;90.80;;;;;;5053498;28;20052;-79
2022/09/03 08:21:27;;;;;;;;;;;20.50;90.80;;;;;;5053796;28;20040;-80
2022/09/03 08:24:01;;;;;;;1.25;0.50;;;20.30;91.00;;;;;;5037589;28;19920;-80
2022/09/03 08:26:32;;;;;;;0.77;0.65;;;20.50;90.90;;;;;;5053769;28;20101;-80
2022/09/03 08:28:58;;;;;;;0.50;0.50;;;20.60;91.30;;;;;;5053353;28;20048;-71
2022/09/03 08:31:25;;;;;;;1.02;0.50;;;20.80;91.20;;;;;;5053564;28;20067;-79
2022/09/03 08:33:52;;;;;;;0.70;0.43;;;20.80;90.80;;;;;;5020559;28;20059;-79
2022/09/03 08:36:22;;;;;;;0.40;0.40;;;20.90;91.10;;;;;;5053625;28;20064;-79
2022/09/03 08:38:53;;;;;;;0.70;0.60;;;21.10;90.90;;;;;;5053432;28;20109;-79
2022/09/03 08:41:32;;;;;;;1.27;0.50;;;21.20;90.90;;;;;;5053124;28;20080;-80
2022/09/03 08:44:04;;;;;;;0.40;0.40;;;21.50;91.00;;;;;;5053429;28;20107;-79
2022/09/03 08:46:57;;;;;;;1.02;0.50;;;21.70;90.80;;;;;;5053292;28;20488;-80
2022/09/03 08:49:54;;;;;;;0.70;0.40;;;21.70;90.60;;;;;;5053172;28;20396;-79
2022/09/03 08:52:32;;;;;;;0.47;0.30;;;21.90;90.10;;;;;;5036777;28;20051;-72
2022/09/03 08:55:07;;;;;;;0.68;0.45;;;21.80;90.00;;;;;;5052923;28;20044;-72
2022/09/03 08:57:48;;;;;;;1.08;0.40;;;21.90;90.20;;;;;;5053076;28;20044;-72
2022/09/03 09:00:15;;;;;;;0.30;0.30;;;22.10;90.10;;;;;;5052988;28;20097;-80
2022/09/03 09:02:54;;;;;;;0.43;0.40;;;22.20;90.60;;;;;;5053501;28;20045;-80
2022/09/03 09:05:37;;;;;;;0.60;0.40;;;22.40;90.30;;;;;;5053002;28;20052;-80
2022/09/03 09:08:06;;;;;;;0.57;0.40;;;22.50;90.10;;;;;;5053160;28;20140;-81
2022/09/03 09:10:47;;;;;;;0.63;0.40;;;22.40;89.70;;;;;;5052997;28;20059;-80
2022/09/03 09:13:35;;;;;;;0.60;0.50;;;22.40;90.10;;;;;;5053255;28;20063;-80
2022/09/03 09:16:04;;;;;;;0.75;0.40;;;22.30;89.40;;;;;;5052903;28;20079;-80
2022/09/03 09:19:14;;;;;;;0.82;0.50;;;22.40;90.10;;;;;;5053331;28;20423;-81
2022/09/03 09:21:47;;;;;;;0.77;0.43;;;22.50;90.20;;;;;;5053008;28;20366;-81
2022/09/03 09:24:25;;;;;;;0.52;0.40;;;22.70;89.50;;;;;;5052707;28;20060;-80
2022/09/03 09:27:03;;;;;;;1.23;0.50;;;22.60;89.40;;;;;;5053005;28;20464;-82
2022/09/03 09:29:34;;;;;;;0.75;0.50;;;22.60;89.80;;;;;;5052912;28;20056;-79
2022/09/03 09:31:59;;;;;;;0.50;0.40;;;22.60;89.80;;;;;;5056606;28;20822;-80
2022/09/03 09:34:26;;;;;;;0.38;0.30;;;22.90;89.50;;;;;;5056648;28;20174;-81
2022/09/03 09:36:54;;;;;;;0.75;0.30;;;23.20;90.20;;;;;;5056632;28;20068;-81
2022/09/03 09:39:21;;;;;;;0.35;0.30;;;23.50;89.20;;;;;;5056819;28;20387;-82
2022/09/03 09:42:20;;;;;;;0.30;0.20;;;23.70;89.90;;;;;;5040226;28;20049;-82
2022/09/03 09:44:46;;;;;;;1.30;0.65;;;23.70;88.60;;;;;;5014236;28;20445;-81
2022/09/03 09:47:19;;;;;;;4.15;0.50;;;23.40;88.40;;;;;;5056194;28;20044;-73
2022/09/03 09:49:45;;;;;;;3.00;0.60;;;23.10;88.40;;;;;;5039684;28;20054;-81
2022/09/03 09:52:13;;;;;;;0.32;0.30;;;23.20;88.70;;;;;;5056734;28;20048;-81
2022/09/03 09:54:40;;;;;;;0.40;0.40;;;23.40;89.80;;;;;;5056251;28;20040;-81
2022/09/03 09:57:16;;;;;;;0.40;0.35;;;23.60;88.80;;;;;;5056350;28;20059;-72
2022/09/03 09:59:44;;;;;;;0.30;0.30;;;23.60;89.20;;;;;;5056331;28;20094;-72
2022/09/03 10:02:27;;;;;;;0.47;0.35;;;23.60;88.60;;;;;;5074310;28;20055;-72
2022/09/03 10:04:59;;;;;;;0.40;0.32;;;23.70;88.10;;;;;;5055876;28;20400;-72
2022/09/03 10:07:30;;;;;;;0.98;0.50;;;23.80;88.20;;;;;;5055916;28;20036;-73
2022/09/03 10:10:13;;;;;;;0.73;0.47;;;23.90;88.40;;;;;;5056129;28;20056;-72
2022/09/03 10:12:50;;;;;;;0.93;0.40;;;24.10;88.20;;;;;;5056155;28;20497;-72
2022/09/03 10:15:31;;;;;;;0.73;0.40;;;24.10;87.60;;;;;;5055709;28;20372;-72
2022/09/03 10:18:26;;;;;;;1.80;0.63;;;24.00;87.10;;;;;;5055695;28;20059;-73
2022/09/03 10:21:09;;;;;;;0.52;0.40;;;24.10;87.20;;;;;;5055811;28;20499;-71
2022/09/03 10:24:14;;;;;;;0.30;0.30;;;24.10;87.70;;;;;;5055633;28;20045;-72
2022/09/03 10:26:44;;;;;;;0.98;0.65;;;24.50;87.50;;;;;;5052337;28;20052;-71
2022/09/03 10:29:15;;;;;;;0.40;0.30;;;24.40;86.40;;;;;;5055611;28;20079;-71
2022/09/03 10:32:08;;;;;;;1.13;0.60;;;24.50;87.00;;;;;;5055921;28;20102;-72
2022/09/03 10:34:46;;;;;;;1.80;0.50;;;24.40;86.10;;;;;;5015353;28;20496;-72
2022/09/03 10:37:45;;;;;;;0.65;0.50;;;24.50;86.40;;;;;;5055229;28;20078;-72
2022/09/03 10:40:29;;;;;;;0.50;0.50;;;24.70;86.30;;;;;;5038522;28;20120;-72
2022/09/03 10:43:15;;;;;;;0.70;0.50;;;24.70;86.40;;;;;;5054250;28;20119;-82
2022/09/03 10:46:02;;;;;;;1.25;0.45;;;24.80;85.90;;;;;;5055350;28;20504;-82
2022/09/03 10:48:46;;;;;;;0.55;0.30;;;25.10;86.60;;;;;;5055714;28;20044;-81
2022/09/03 10:51:12;;;;;;;1.23;0.50;;;25.30;86.40;;;;;;5055831;28;20048;-82
2022/09/03 10:54:02;;;;;;;0.50;0.43;;;25.40;85.20;;;;;;5055544;28;20063;-82
2022/09/03 10:56:48;;;;;;;0.80;0.50;;;25.60;86.10;;;;;;5055523;28;20088;-82
2022/09/03 10:59:31;;;;;;;0.47;0.38;;;25.50;84.10;;;;;;5056031;28;20559;-81
2022/09/03 11:02:16;;;;;;;0.73;0.47;;;25.60;84.50;;;;;;5073427;28;20500;-82
2022/09/03 11:05:01;;;;;;;1.80;0.52;;;25.70;84.30;;;;;;5038687;28;20048;-82
2022/09/03 11:08:02;;;;;;;0.88;0.50;;;25.70;85.10;;;;;;5054871;28;20049;-81
2022/09/03 11:10:36;;;;;;;3.40;0.52;;;25.50;84.00;;;;;;5006883;28;20131;-82
2022/09/03 11:13:18;;;;;;;0.68;0.50;;;25.70;84.80;;;;;;5055341;28;20044;-82
2022/09/03 11:15:48;;;;;;;0.73;0.30;;;26.00;84.00;;;;;;5054695;28;20111;-80
2022/09/03 11:18:34;;;;;;;2.28;0.60;;;26.00;84.20;;;;;;5038387;28;20476;-81
2022/09/03 11:21:04;;;;;;;1.10;0.60;;;26.00;83.00;;;;;;5054227;28;20403;-81
2022/09/03 11:23:36;;;;;;;2.53;0.50;;;25.80;82.50;;;;;;5054919;28;20048;-82
2022/09/03 11:26:07;;;;;;;0.88;0.50;;;25.90;82.90;;;;;;5054355;28;20124;-82
2022/09/03 11:28:44;;;;;;;0.80;0.50;;;25.90;83.00;;;;;;5054552;28;20090;-82
2022/09/03 11:31:22;;;;;;;0.30;0.30;;;26.00;82.50;;;;;;5054562;28;20123;-83
2022/09/03 11:34:15;;;;;;;0.65;0.40;;;26.30;83.00;;;;;;5054598;28;20052;-82
2022/09/03 11:36:41;;;;;;;0.65;0.50;;;26.50;82.60;;;;;;5037596;28;20071;-82
2022/09/03 11:39:22;;;;;;;0.35;0.35;;;26.60;83.00;;;;;;5054606;28;20453;-82
2022/09/03 11:42:28;;;;;;;0.68;0.43;;;26.80;82.50;;;;;;5037983;28;20075;-82
2022/09/03 11:45:11;;;;;;;0.30;0.20;;;26.80;81.10;;;;;;4974233;28;20645;-83
2022/09/03 11:47:42;;;;;;;0.28;0.28;;;27.10;81.80;;;;;;5050187;28;20057;-82
2022/09/03 11:50:21;;;;;;;0.30;0.30;;;27.20;80.80;;;;;;5054181;28;20032;-81
2022/09/03 11:52:50;;;;;;;1.95;0.50;;;27.10;80.30;;;;;;5054107;28;20044;-82
2022/09/03 11:55:28;;;;;;;0.55;0.30;;;27.20;80.80;;;;;;5054104;28;20044;-72
2022/09/03 11:57:54;;;;;;;0.85;0.50;;;27.40;80.80;;;;;;5071783;28;20507;-71
2022/09/03 12:00:23;;;;;;;0.45;0.40;;;27.10;80.20;;;;;;5053901;28;20098;-72
2022/09/03 12:03:00;;;;;;;0.50;0.50;;;26.90;80.50;;;;;;5054009;28;20059;-72
2022/09/03 12:05:36;;;;;;;0.60;0.40;;;26.80;80.30;;;;;;5053851;28;20044;-72
2022/09/03 12:08:21;;;;;;;0.45;0.40;;;26.90;80.60;;;;;;5053842;28;20044;-72
2022/09/03 12:11:09;;;;;;;2.72;0.40;;;27.10;80.70;;;;;;5071780;28;20036;-72
2022/09/03 12:14:00;;;;;;;0.80;0.45;;;27.30;80.60;;;;;;5053788;28;20057;-71
2022/09/03 12:16:48;;;;;;;0.40;0.30;;;27.20;80.50;;;;;;5053537;28;20113;-72
2022/09/03 12:19:42;;;;;;;0.43;0.30;;;27.40;79.90;;;;;;5053322;28;20066;-72
2022/09/03 12:22:15;;;;;;;0.85;0.40;;;27.50;79.90;;;;;;5037054;28;20068;-72
2022/09/03 12:24:42;;;;;;;0.20;0.20;;;27.50;79.60;;;;;;5053408;28;20052;-72
2022/09/03 12:27:13;;;;;;;0.52;0.40;;;27.70;79.80;;;;;;5053628;28;20088;-72
2022/09/03 12:29:54;;;;;;;0.40;0.30;;;27.40;79.00;;;;;;5053280;28;20040;-73
2022/09/03 12:32:20;;;;;;;0.30;0.30;;;27.30;79.30;;;;;;5053263;28;20049;-72
2022/09/03 12:34:46;;;;;;;0.45;0.43;;;27.40;78.50;;;;;;5053231;28;20106;-72
2022/09/03 12:37:23;;;;;;;1.17;0.40;;;27.20;79.20;;;;;;5053447;28;20510;-71
2022/09/03 12:39:54;;;;;;;0.40;0.40;;;27.30;79.10;;;;;;5053254;28;20045;-73
2022/09/03 12:42:27;;;;;;;0.52;0.30;;;27.20;79.00;;;;;;5053472;28;20045;-82
2022/09/03 12:44:53;;;;;;;0.60;0.40;;;27.20;78.50;;;;;;5053179;28;20040;-80
2022/09/03 12:47:23;;;;;;;0.70;0.68;;;27.40;78.70;;;;;;5036767;28;20050;-82
2022/09/03 12:49:56;;;;;;;0.40;0.40;;;27.30;79.30;;;;;;5053490;28;20123;-73
2022/09/03 12:52:34;;;;;;;2.95;0.55;;;27.50;78.80;;;;;;5052940;28;20487;-73
2022/09/03 12:55:05;;;;;;;0.52;0.47;;;27.50;78.50;;;;;;5036757;28;20408;-73
2022/09/03 12:57:39;;;;;;;0.57;0.40;;;27.60;78.60;;;;;;5053240;28;20127;-83
2022/09/03 13:00:09;;;;;;;0.47;0.32;;;27.90;79.40;;;;;;5071246;28;20109;-73
2022/09/03 13:02:39;;;;;;;0.60;0.38;;;28.20;78.80;;;;;;5053365;28;20449;-72
2022/09/03 13:05:10;;;;;;;0.90;0.40;;;28.00;77.80;;;;;;5035883;28;20040;-72
2022/09/03 13:07:37;;;;;;;0.63;0.38;;;27.90;78.20;;;;;;5053116;28;20044;-81
2022/09/03 13:10:32;;;;;;;0.50;0.30;;;27.70;78.00;;;;;;5053131;28;20463;-82
2022/09/03 13:13:15;;;;;;;1.17;0.50;;;27.80;78.30;;;;;;5053235;28;20045;-82
2022/09/03 13:15:40;;;;;;;0.30;0.30;;;27.90;78.30;;;;;;5070743;28;20479;-82
2022/09/03 13:18:19;;;;;;;0.98;0.55;;;27.60;77.20;;;;;;5036033;28;20079;-72
2022/09/03 13:21:07;;;;;;;0.52;0.50;;;27.60;77.90;;;;;;5052710;28;20484;-82
2022/09/03 13:23:49;;;;;;;0.70;0.50;;;27.60;78.60;;;;;;5036826;28;20063;-82